Bruno, Nebraska
Current Conditions -  °F | °C
As of 6:10 AM on Friday 19 Dec 2014 (Local Time) from KAHQ Reporting Station
Haze Haze  
Wind Chill: 31°   Ceiling: 2000
Heat Index: 31°   Visibility: 5mi
Dew Point: 29°   Wind: 3mph
Humidity: 90%   Direction: 190°S
Pressure: 30.2"   Gusts: NA
Location:  41.28°N, 96.96°W
Report Text: KAHQ 191210Z AUTO 19003KT 5SM BR OVC020 00/M02 A3020 RMK AO2 T10041019
Loading
Personal Weather Stations






























Interactive Weather Map New forecast layout! Learn more

10-Day Weather Forecast

Advertisements
Track Severe Weather on mobile